Mobirise responsive web design software

MIRANDELA

METAR: LPMI 222005Z 15006KT 13/06 Q1005
Latest Report: 2017-11-22 20:07:25Z (2 minutes ago)

 07:30 LT      17:00 LT

Location: Vale da Maceira, Passos, 4km SW of Mirandela
Lat: 412813N Long: 0071340W
Elevation: 403m/1322FT
Runway: 17/35 (750x30m)
Frequency: 120.200 Mhz

Approved Traffic: VFR / Ultralight Aircraft
Hours of Operation: HJ
image

PRESENT WEATHER - MIRANDELA

Latest Report: 2017-11-22 20:07:25Z
 

150/06KT

13ºC

6ºC

1005 hPa

0.00 mm

WEATHER HISTORY

[ All times in Zulu ]

  SEARCH METAR HISTORY
METAR (Last Hour)
LPMI 222000Z 15004KT 13/06 Q1005
LPMI 221950Z 15006KT 12/06 Q1005
LPMI 221940Z VRB02KT 12/06 Q1005
LPMI 221930Z 18004KT 12/06 Q1005
LPMI 221920Z 18006KT 11/06 Q1004
LPMI 221910Z 17010KT 11/06 Q1004
Wind Trend (Last Hour)
Average Wind Direction: 170 °
Average Wind Speed: 5 KT
 
Maximum Wind Speed: 10 KT
Maximum Gust: 14 KT
 
Station records since2017-03-26 10:43:05
Minimum Pressure: 991 hPa @ 2017-05-11 03:08:18
Maximum Pressure: 1028 hPa @ 2017-10-27 09:30:49
  
Minimum Temperature: 0° C @ 2017-11-20 07:13:27
Maximum Temperature: 41° C @ 2017-06-17 14:49:55
  
Maximum Wind: 37 KT @ 2017-04-19 01:11:36
Maximum Gust: 43 KT @ 2017-04-30 15:24:26
  
Maximum Daily Rain (mm): 12.19 mm @ 2017-11-04 14:18:59
Days without rain: 17 days (since 2017-11-04 14:24:03)